Bellefonte, Delaware
Current Conditions -  °F | °C
As of 1:51 PM on Friday 21 Nov 2014 (Local Time) from KILG Reporting Station
Clear Clear  
Wind Chill: 27°   Ceiling: Unl
Heat Index: 37°   Visibility: 10mi
Dew Point:   Wind: 18mph
Humidity: 31%   Direction: 300°WNW
Pressure: 30.41"   Gusts: 23mph
Location:  39.772°N, 75.4963°W
Report Text: KILG 211851Z 30016G20KT 10SM CLR 03/M13 A3041 RMK AO2 PK WND 32026/1803 SLP298 T00281128
Loading
Personal Weather Stations






























Interactive Weather Map New forecast layout! Learn more

10-Day Weather Forecast

Advertisements
Track Severe Weather on mobile